Time;durP1;ratioP1;P1;durP2;ratioP2;P2;SDS_P1;SDS_P2;PMS_P1;PMS_P2;Temp;Humidity;BMP_temperature;BMP_pressure;BME280_temperature;BME280_humidity;BME280_pressure;Samples;Min_cycle;Max_cycle;Signal;HPM_P1;HPM_P2
2022/08/13 00:01:49;;;;;;;2.45;1.30;;;17.50;65.10;;;16.60;70.05;96023.56;4964670;28;20511;-65
2022/08/13 00:04:15;;;;;;;2.75;1.75;;;17.40;65.30;;;16.54;70.93;96018.13;4948713;28;20046;-66
2022/08/13 00:09:12;;;;;;;2.42;1.52;;;17.20;65.80;;;16.47;71.96;96013.94;4963040;28;20122;-66
2022/08/13 00:14:31;;;;;;;4.53;1.73;;;17.20;65.70;;;16.41;71.21;96010.34;4948170;28;20109;-66
2022/08/13 00:16:56;;;;;;;2.25;1.60;;;17.20;65.70;;;16.39;71.23;96009.78;4949335;28;20194;-65
2022/08/13 00:19:26;;;;;;;2.58;1.80;;;17.10;65.80;;;16.35;71.94;96015.78;4947882;28;20094;-64
2022/08/13 00:21:53;;;;;;;4.22;1.67;;;17.10;66.00;;;16.34;72.03;96009.66;4967698;28;20043;-64
2022/08/13 00:24:19;;;;;;;1.80;1.55;;;17.10;65.80;;;16.31;71.64;96004.81;4946849;28;20039;-64
2022/08/13 00:26:44;;;;;;;2.50;1.80;;;17.10;66.00;;;16.31;72.93;95999.50;4928478;28;20062;-64
2022/08/13 00:29:10;;;;;;;2.63;1.73;;;17.10;66.20;;;16.31;72.47;96001.34;4965642;28;20524;-64
2022/08/13 00:31:37;;;;;;;4.35;1.88;;;17.10;66.50;;;16.30;73.51;96003.19;4930648;28;20031;-63
2022/08/13 00:34:03;;;;;;;3.35;1.90;;;17.10;67.10;;;16.31;73.05;96007.44;4960020;28;20407;-64
2022/08/13 00:36:34;;;;;;;5.72;2.10;;;17.10;67.30;;;16.34;73.54;96006.19;4946338;28;20419;-64
2022/08/13 00:39:02;;;;;;;;;;;17.20;67.00;;;16.35;75.75;96003.31;4956610;28;20081;-65
2022/08/13 00:41:37;;;;;;;4.63;1.92;;;17.30;66.90;;;16.36;72.84;96002.25;4931253;28;20362;-64
2022/08/13 00:44:11;;;;;;;2.28;1.75;;;17.30;66.90;;;16.39;74.94;96001.00;4961130;28;20391;-64
2022/08/13 00:46:37;;;;;;;2.35;1.63;;;17.40;66.80;;;16.40;74.00;95992.81;4947260;28;20126;-63
2022/08/13 00:49:03;;;;;;;3.55;1.58;;;17.40;66.60;;;16.43;73.58;95997.66;4935837;28;20036;-64
2022/08/13 00:51:31;;;;;;;2.33;1.75;;;17.40;66.40;;;16.45;73.85;95995.56;4947930;28;20558;-64
2022/08/13 00:53:58;;;;;;;2.88;1.70;;;17.50;66.30;;;16.45;73.02;95992.91;4932743;28;20031;-64
2022/08/13 00:56:24;;;;;;;3.10;1.70;;;17.40;66.30;;;16.46;73.86;95999.84;4947223;28;20035;-64
2022/08/13 00:58:50;;;;;;;3.30;2.08;;;17.40;66.50;;;16.45;73.76;95992.91;4924528;28;20027;-64
2022/08/13 01:01:16;;;;;;;2.17;1.75;;;17.40;66.30;;;16.45;74.44;95990.28;4946561;28;20101;-64
2022/08/13 01:03:42;;;;;;;2.63;1.95;;;17.40;66.60;;;16.47;73.75;95995.34;4928685;28;20122;-64
2022/08/13 01:06:08;;;;;;;6.72;2.33;;;17.40;66.50;;;16.47;73.92;95988.19;4950715;28;20039;-65
2022/08/13 01:08:36;;;;;;;8.50;5.80;;;17.40;66.70;;;16.48;74.17;95984.50;4933204;28;20038;-64
2022/08/13 01:11:11;;;;;;;12.35;10.57;;;17.40;67.00;;;16.51;75.50;95991.19;4932430;28;20043;-66
2022/08/13 01:13:38;;;;;;;7.10;4.63;;;17.40;67.20;;;16.50;74.36;95987.72;4947652;28;20036;-64
2022/08/13 01:16:13;;;;;;;5.72;4.47;;;17.40;67.00;;;16.49;74.74;95980.81;4912298;29;20511;-64
2022/08/13 01:18:41;;;;;;;6.85;5.05;;;17.40;67.10;;;16.49;74.90;95982.66;4941931;28;20040;-64
2022/08/13 01:21:15;;;;;;;3.13;2.10;;;17.40;67.00;;;16.47;75.04;95976.75;4931382;28;20460;-64
2022/08/13 01:23:45;;;;;;;3.45;1.95;;;17.40;67.00;;;16.45;74.50;95979.66;4962838;28;20054;-63
2022/08/13 01:26:12;;;;;;;6.45;2.00;;;17.30;67.20;;;16.41;74.86;95978.50;4947576;28;20062;-64
2022/08/13 01:28:39;;;;;;;4.05;1.92;;;17.40;67.10;;;16.39;75.38;95982.41;4946665;28;20042;-65
2022/08/13 01:31:06;;;;;;;3.55;2.00;;;17.20;67.20;;;16.32;75.05;95985.19;4931602;28;20070;-65
2022/08/13 01:33:38;;;;;;;3.75;2.25;;;17.20;67.40;;;16.27;75.44;95981.56;4947415;28;20392;-64
2022/08/13 01:36:05;;;;;;;4.18;3.30;;;17.10;67.50;;;16.21;75.83;95978.78;4916336;28;20763;-64
2022/08/13 01:38:31;;;;;;;6.50;4.75;;;17.10;67.60;;;16.16;75.03;95973.34;4947800;28;20039;-64
2022/08/13 01:40:57;;;;;;;16.60;10.98;;;17.10;67.80;;;16.11;75.69;95972.44;4932439;28;20511;-64
2022/08/13 01:43:28;;;;;;;9.52;7.80;;;17.00;68.00;;;16.08;75.75;95964.94;4940921;28;20118;-63
2022/08/13 01:45:54;;;;;;;7.95;7.15;;;16.90;68.10;;;16.01;76.11;95972.16;4959452;28;20578;-64
2022/08/13 01:51:24;;;;;;;12.73;11.37;;;16.80;68.60;;;15.92;77.41;95980.44;4965375;28;20042;-64
2022/08/13 01:53:52;;;;;;;5.43;4.57;;;16.80;68.60;;;15.89;76.64;95991.50;4964857;28;20035;-64
2022/08/13 01:56:21;;;;;;;5.65;2.95;;;16.70;68.80;;;15.86;77.26;95984.00;4934905;28;20043;-64
2022/08/13 01:58:48;;;;;;;4.30;2.88;;;16.80;68.90;;;15.83;76.66;95992.38;4949892;28;20031;-64
2022/08/13 02:01:14;;;;;;;3.35;2.50;;;16.70;69.00;;;15.80;76.94;95982.22;4967929;28;20036;-64
2022/08/13 02:03:43;;;;;;;3.50;2.50;;;16.60;69.10;;;15.75;77.59;95982.09;4955590;28;20142;-64
2022/08/13 02:06:11;;;;;;;2.78;2.20;;;16.60;69.20;;;15.74;78.42;95987.63;4952700;28;20113;-64
2022/08/13 02:08:38;;;;;;;3.58;2.60;;;16.60;69.30;;;15.69;78.30;95985.66;4940191;28;20532;-64
2022/08/13 02:11:04;;;;;;;7.22;2.60;;;16.50;69.60;;;15.65;78.82;95986.31;4943103;28;20046;-64
2022/08/13 02:13:30;;;;;;;3.28;2.60;;;16.50;69.80;;;15.62;78.94;95990.22;4962915;28;20043;-64
2022/08/13 02:15:56;;;;;;;4.68;2.78;;;16.50;70.00;;;15.60;78.93;95986.97;4942516;28;20087;-64
2022/08/13 02:18:23;;;;;;;5.18;2.60;;;16.50;69.90;;;15.57;78.67;95990.03;4950179;28;20035;-64
2022/08/13 02:20:59;;;;;;;5.90;2.60;;;16.50;69.90;;;15.57;80.23;95992.69;4919172;28;20412;-65
2022/08/13 02:23:31;;;;;;;2.60;2.22;;;16.50;69.90;;;15.53;79.91;95991.50;4929558;28;20120;-64
2022/08/13 02:25:57;;;;;;;3.38;2.35;;;16.50;69.90;;;15.50;79.77;95991.97;4934939;28;20471;-65
2022/08/13 02:28:23;;;;;;;4.07;2.33;;;16.50;69.90;;;15.46;79.14;95990.78;4958142;28;20039;-66
2022/08/13 02:30:52;;;;;;;3.40;2.53;;;16.30;70.40;;;15.44;79.30;95992.84;4936896;28;20062;-64
2022/08/13 02:33:17;;;;;;;11.55;9.77;;;16.40;70.40;;;15.40;79.55;95999.63;4936966;28;20039;-64
2022/08/13 02:35:43;;;;;;;31.10;27.25;;;16.30;70.50;;;15.36;80.47;95990.47;4937147;29;20137;-65
2022/08/13 02:38:12;;;;;;;29.30;25.45;;;16.30;70.70;;;15.33;80.94;95992.56;4918561;29;20609;-65
2022/08/13 02:43:25;;;;;;;7.25;4.07;;;16.30;70.80;;;15.25;80.26;95992.84;4924176;28;20046;-66
2022/08/13 02:45:53;;;;;;;4.13;3.30;;;16.10;71.10;;;15.25;81.46;95990.19;4919037;28;20581;-64
2022/08/13 02:48:24;;;;;;;3.80;2.78;;;16.20;71.20;;;15.22;81.56;95988.00;4966459;28;20077;-64
2022/08/13 02:50:50;;;;;;;;;;;16.20;71.20;;;15.19;81.75;95990.28;4946363;28;20036;-65
2022/08/13 02:53:19;;;;;;;3.00;2.50;;;16.10;71.20;;;15.14;80.42;95993.56;4952494;28;19924;-64
2022/08/13 02:55:45;;;;;;;3.58;2.30;;;16.10;71.20;;;15.14;81.53;95992.75;4932555;28;20127;-64
2022/08/13 02:58:11;;;;;;;3.63;2.40;;;16.00;71.30;;;15.12;81.82;95985.03;4949811;28;20525;-64
2022/08/13 03:00:36;;;;;;;3.20;2.78;;;16.10;71.50;;;15.11;80.90;95988.72;4957980;28;20063;-65
2022/08/13 03:03:04;;;;;;;4.13;2.53;;;16.10;71.50;;;15.10;81.90;95986.28;4962762;28;20086;-65
2022/08/13 03:05:30;;;;;;;3.47;2.60;;;16.10;71.70;;;15.07;82.49;95986.72;4937831;28;20054;-64
2022/08/13 03:07:57;;;;;;;4.28;2.72;;;16.00;71.70;;;15.05;81.62;95978.19;4949869;28;20040;-64
2022/08/13 03:10:25;;;;;;;4.32;2.88;;;16.00;71.80;;;15.04;82.71;95977.38;4932606;28;20137;-64
2022/08/13 03:13:24;;;;;;;3.28;2.67;;;16.10;71.90;;;15.04;83.95;95969.44;4915965;28;20118;-64
2022/08/13 03:15:55;;;;;;;3.13;2.50;;;16.00;72.10;;;15.01;82.55;95977.81;4946649;28;20517;-64
2022/08/13 03:18:22;;;;;;;3.65;2.92;;;16.00;72.00;;;15.01;81.69;95978.63;4952178;28;20101;-63
2022/08/13 03:20:49;;;;;;;3.00;2.70;;;16.00;71.70;;;15.01;81.57;95969.88;4949107;28;20515;-64
2022/08/13 03:23:15;;;;;;;3.55;2.80;;;16.00;71.50;;;14.97;82.01;95974.00;4949693;28;20039;-63
2022/08/13 03:25:40;;;;;;;3.38;2.90;;;15.90;71.40;;;14.94;82.61;95977.09;4952351;28;20152;-64
2022/08/13 03:28:06;;;;;;;3.45;2.80;;;15.80;71.20;;;14.89;82.25;95985.66;4933227;28;20042;-64
2022/08/13 03:30:34;;;;;;;5.97;3.50;;;15.80;71.20;;;14.87;82.51;95986.91;4949327;28;20039;-63
2022/08/13 03:33:06;;;;;;;4.05;3.05;;;15.70;71.80;;;14.82;83.02;95984.94;4958489;28;20032;-64
2022/08/13 03:35:33;;;;;;;4.93;3.00;;;15.70;71.90;;;14.80;83.20;95980.88;4964612;28;20058;-66
2022/08/13 03:37:58;;;;;;;3.13;2.80;;;15.70;71.90;;;14.79;83.33;95984.56;4948792;28;20426;-64
2022/08/13 03:41:00;;;;;;;5.15;2.90;;;15.70;71.90;;;14.76;82.79;95979.72;4965746;28;20046;-64
2022/08/13 03:43:11;;;;;;;5.75;3.50;;;15.70;72.10;;;14.73;83.42;95972.19;4924305;28;20062;-67
2022/08/13 03:45:37;;;;;;;3.70;3.03;;;15.60;72.20;;;14.69;83.78;95969.97;4912990;29;20493;-66
2022/08/13 03:48:03;;;;;;;3.67;3.22;;;15.60;72.30;;;14.63;83.19;95970.84;4946116;28;20533;-66
2022/08/13 03:50:29;;;;;;;4.45;3.40;;;15.60;72.40;;;14.61;83.45;95967.59;4943192;28;20031;-64
2022/08/13 03:53:01;;;;;;;4.28;3.50;;;15.60;72.50;;;14.58;84.59;95973.34;4917124;28;20049;-63
2022/08/13 03:55:30;;;;;;;3.90;3.38;;;15.60;72.70;;;14.55;84.92;95975.59;4948576;28;20109;-63
2022/08/13 03:57:56;;;;;;;7.95;3.17;;;15.50;72.70;;;14.52;83.76;95974.22;4949093;28;20035;-63
2022/08/13 04:00:22;;;;;;;4.43;3.53;;;15.40;72.90;;;14.51;83.67;95971.78;4949184;28;20043;-64
2022/08/13 04:02:48;;;;;;;4.10;3.42;;;15.40;73.00;;;14.48;84.51;95977.47;4933715;28;20609;-63
2022/08/13 04:05:16;;;;;;;4.00;3.60;;;15.40;73.10;;;14.44;84.13;95982.41;4948760;28;20035;-64
2022/08/13 04:07:42;;;;;;;4.25;3.85;;;15.40;73.20;;;14.43;85.04;95972.00;4950145;28;20035;-64
2022/08/13 04:10:09;;;;;;;5.25;2.65;;;15.40;73.30;;;14.43;84.83;95980.78;4948747;28;20106;-63
2022/08/13 04:12:35;;;;;;;4.13;3.30;;;15.40;73.40;;;14.41;84.23;95970.38;4949421;28;20067;-63
2022/08/13 04:15:01;;;;;;;6.28;3.65;;;15.40;73.40;;;14.40;85.27;95965.31;4947812;28;20050;-64
2022/08/13 04:17:27;;;;;;;4.38;3.40;;;15.40;73.40;;;14.40;85.32;95971.41;4931496;28;20043;-63
2022/08/13 04:19:53;;;;;;;4.80;3.75;;;15.40;73.70;;;14.43;86.20;95964.91;4931665;28;20031;-63
2022/08/13 04:22:20;;;;;;;4.57;3.50;;;15.50;73.90;;;14.45;87.09;95962.03;4916993;29;20046;-63
2022/08/13 04:24:46;;;;;;;5.65;3.47;;;15.50;74.00;;;14.44;86.84;95969.16;4933425;28;20506;-64
2022/08/13 04:27:11;;;;;;;6.68;3.28;;;15.50;74.00;;;14.48;85.80;95965.06;4932262;28;20122;-64
2022/08/13 04:29:37;;;;;;;4.47;3.28;;;15.50;73.90;;;14.51;87.08;95966.50;4927279;28;20075;-63
2022/08/13 04:32:03;;;;;;;4.22;3.63;;;15.60;73.70;;;14.53;86.75;95959.13;4955313;28;20402;-64
2022/08/13 04:34:29;;;;;;;3.85;3.03;;;15.60;73.50;;;14.56;87.25;95954.22;4951066;28;20533;-64
2022/08/13 04:36:56;;;;;;;4.18;3.35;;;15.60;73.10;;;14.59;86.17;95953.78;4951218;28;20049;-63
2022/08/13 04:39:22;;;;;;;4.47;3.33;;;15.70;73.00;;;14.60;86.34;95958.03;4916468;28;20053;-64
2022/08/13 04:41:48;;;;;;;4.28;3.67;;;15.70;72.50;;;14.63;85.74;95956.78;4906694;29;20032;-65
2022/08/13 04:44:14;;;;;;;6.82;3.88;;;15.70;72.60;;;14.63;85.56;95965.53;4948722;28;20455;-66
2022/08/13 04:46:39;;;;;;;6.38;4.57;;;15.70;73.10;;;14.62;87.42;95961.28;4950564;28;20101;-65
2022/08/13 04:49:06;;;;;;;5.88;4.70;;;15.70;73.40;;;14.63;87.15;95956.78;4918275;28;20051;-66
2022/08/13 04:51:34;;;;;;;5.07;4.47;;;15.80;73.60;;;14.62;87.18;95958.63;4919140;29;20159;-65
2022/08/13 04:54:00;;;;;;;5.15;3.92;;;15.80;73.70;;;14.66;87.63;95959.81;4934569;28;20498;-66
2022/08/13 04:56:25;;;;;;;7.07;4.72;;;15.90;73.70;;;14.68;88.72;95963.03;4942041;28;20042;-66
2022/08/13 04:58:51;;;;;;;4.80;4.30;;;15.90;73.70;;;14.72;88.20;95958.16;4937899;28;20031;-66
2022/08/13 05:01:17;;;;;;;6.60;4.60;;;15.90;73.70;;;14.76;88.78;95953.22;4946875;28;20094;-66
2022/08/13 05:03:45;;;;;;;5.13;4.63;;;16.00;73.70;;;14.81;87.86;95956.03;4947185;28;20043;-67
2022/08/13 05:06:19;;;;;;;5.80;4.47;;;16.10;73.30;;;14.83;87.54;95954.78;4947141;28;20028;-66
2022/08/13 05:08:46;;;;;;;4.60;4.20;;;16.10;73.30;;;14.87;87.59;95961.25;4931151;28;20047;-66
2022/08/13 05:11:12;;;;;;;5.53;4.20;;;16.10;73.40;;;14.90;88.88;95960.00;4956287;28;20038;-66
2022/08/13 05:13:38;;;;;;;5.40;3.92;;;16.10;73.30;;;14.92;87.09;95963.22;4950508;28;20035;-66
2022/08/13 05:16:06;;;;;;;6.20;3.63;;;16.10;72.70;;;14.94;87.07;95969.16;4934494;29;20039;-66
2022/08/13 05:18:33;;;;;;;4.65;3.50;;;16.20;72.50;;;14.96;87.60;95959.13;4935291;28;20066;-66
2022/08/13 05:21:05;;;;;;;3.95;3.55;;;16.20;72.60;;;15.01;87.74;95956.63;4957981;28;20031;-66
2022/08/13 05:23:33;;;;;;;5.70;3.88;;;16.20;72.90;;;15.05;87.29;95957.81;4938228;29;20039;-67
2022/08/13 05:25:59;;;;;;;5.70;3.92;;;16.30;73.20;;;15.09;87.22;95956.34;4953313;28;20122;-67
2022/08/13 05:28:26;;;;;;;8.60;4.90;;;16.30;73.00;;;15.13;87.45;95959.34;4934611;28;20035;-66
2022/08/13 05:30:51;;;;;;;5.57;4.18;;;16.30;73.10;;;15.15;88.17;95958.09;4919141;28;20126;-66
2022/08/13 05:33:19;;;;;;;5.53;4.32;;;16.40;73.20;;;15.19;87.84;95961.13;4918633;28;20039;-66
2022/08/13 05:35:47;;;;;;;6.43;4.30;;;16.40;73.10;;;15.23;87.85;95960.47;4919316;28;20031;-67
2022/08/13 05:38:14;;;;;;;9.10;4.28;;;16.50;72.70;;;15.28;88.32;95962.44;4934777;28;20027;-66
2022/08/13 05:40:41;;;;;;;5.35;4.40;;;16.60;72.50;;;15.33;87.40;95957.28;4940965;28;20087;-66
2022/08/13 05:43:19;;;;;;;4.65;4.15;;;16.60;72.40;;;15.40;88.44;95954.59;4949677;28;20038;-67
2022/08/13 05:45:49;;;;;;;4.80;4.28;;;16.70;71.80;;;15.46;87.03;95961.63;4937952;28;20038;-66
2022/08/13 05:48:15;;;;;;;4.72;4.13;;;16.80;71.40;;;15.53;85.92;95952.56;4934808;29;20114;-66
2022/08/13 05:50:43;;;;;;;5.03;4.50;;;17.00;70.80;;;15.62;86.07;95953.09;4922246;29;20110;-66
2022/08/13 05:53:11;;;;;;;7.18;4.35;;;17.10;70.10;;;15.72;85.15;95963.97;4923455;28;20101;-66
2022/08/13 05:55:38;;;;;;;4.70;4.25;;;17.10;69.80;;;15.81;84.21;95964.47;4937930;29;20115;-66
2022/08/13 05:58:09;;;;;;;6.53;4.18;;;17.30;68.70;;;15.88;83.92;95973.97;4921732;29;20035;-67
2022/08/13 06:03:31;;;;;;;5.05;4.20;;;17.50;68.30;;;16.08;83.77;95962.28;4940264;28;20041;-66
2022/08/13 06:06:11;;;;;;;4.63;4.22;;;17.60;68.30;;;16.21;82.43;95967.38;4940131;28;20064;-66
2022/08/13 06:08:40;;;;;;;5.43;3.50;;;17.80;66.90;;;16.33;82.10;95959.44;4940141;28;20042;-66
2022/08/13 06:11:17;;;;;;;4.97;4.13;;;18.10;66.70;;;16.49;82.42;95966.72;4922074;28;20417;-66
2022/08/13 06:13:44;;;;;;;5.53;3.85;;;18.40;66.30;;;16.66;81.26;95972.16;4919798;29;20203;-66
2022/08/13 06:16:12;;;;;;;3.88;3.42;;;18.60;65.40;;;16.85;81.62;95973.72;4902962;29;20099;-66
2022/08/13 06:18:43;;;;;;;5.05;3.60;;;18.70;64.50;;;17.01;80.43;95962.41;4933849;28;20050;-66
2022/08/13 06:21:11;;;;;;;4.93;3.50;;;18.90;63.90;;;17.20;79.96;95964.91;4923325;28;20043;-66
2022/08/13 06:23:37;;;;;;;4.55;3.30;;;19.10;63.10;;;17.38;78.67;95962.09;4949717;28;20039;-66
2022/08/13 06:26:04;;;;;;;4.88;3.25;;;19.30;62.60;;;17.55;78.15;95955.00;4925123;29;20127;-66
2022/08/13 06:28:31;;;;;;;3.85;3.00;;;19.40;62.30;;;17.71;77.57;95956.97;4921229;29;20035;-66
2022/08/13 06:31:00;;;;;;;4.82;3.10;;;19.40;62.40;;;17.85;75.67;95957.47;4929424;28;20031;-66
2022/08/13 06:33:27;;;;;;;4.85;2.70;;;19.50;60.80;;;17.94;74.91;95955.25;4964277;28;20055;-66
2022/08/13 06:35:56;;;;;;;4.05;3.28;;;19.50;60.90;;;18.03;74.14;95954.59;4931627;28;20051;-65
2022/08/13 06:38:30;;;;;;;4.35;3.40;;;19.50;60.90;;;18.11;73.84;95953.44;4949150;28;20039;-66
2022/08/13 06:40:59;;;;;;;5.68;3.20;;;19.60;60.60;;;18.18;73.56;95955.94;4964053;28;20492;-67
2022/08/13 06:43:29;;;;;;;8.20;3.08;;;19.70;61.00;;;18.23;74.07;95958.69;4966202;28;20039;-65
2022/08/13 06:45:57;;;;;;;4.50;3.00;;;19.80;61.40;;;18.32;74.10;95962.56;4935610;28;20535;-65
2022/08/13 06:48:23;;;;;;;5.82;2.80;;;20.00;61.00;;;18.41;73.31;95963.78;4938237;28;20055;-66
2022/08/13 06:50:50;;;;;;;4.97;2.53;;;20.10;60.50;;;18.51;73.01;95960.47;4930906;28;20069;-69
2022/08/13 06:53:16;;;;;;;4.72;2.88;;;20.30;59.70;;;18.65;72.20;95951.16;4950381;28;20039;-67
2022/08/13 06:55:42;;;;;;;2.53;2.08;;;20.60;58.40;;;18.78;71.73;95964.13;4951011;28;20049;-66
2022/08/13 06:58:10;;;;;;;4.38;2.30;;;20.70;57.50;;;18.94;70.16;95963.31;4950066;28;20047;-66
2022/08/13 07:00:39;;;;;;;2.92;2.22;;;20.90;56.20;;;19.12;69.67;95961.41;4945445;28;20407;-65
2022/08/13 07:03:06;;;;;;;3.45;2.42;;;21.10;56.00;;;19.26;69.42;95965.34;4943791;28;20031;-66
2022/08/13 07:05:40;;;;;;;3.90;2.20;;;21.20;55.20;;;19.44;67.08;95970.38;4949622;28;20074;-68
2022/08/13 07:08:07;;;;;;;2.65;2.08;;;21.40;54.80;;;19.58;67.19;95969.00;4934762;28;20470;-67
2022/08/13 07:10:34;;;;;;;4.45;2.22;;;21.60;53.90;;;19.71;67.34;95959.00;4939167;28;20403;-65
2022/08/13 07:13:02;;;;;;;2.90;1.90;;;21.70;53.20;;;19.84;67.17;95969.28;4946429;28;20038;-65
2022/08/13 07:15:29;;;;;;;3.70;1.95;;;21.80;54.20;;;19.98;67.06;95967.84;4948816;28;20043;-65
2022/08/13 07:17:56;;;;;;;4.07;2.85;;;22.00;54.60;;;20.08;65.94;95967.13;4930000;28;20512;-66
2022/08/13 07:20:22;;;;;;;3.17;2.28;;;22.00;53.40;;;20.18;65.93;95965.38;4967843;28;20039;-67
2022/08/13 07:22:48;;;;;;;6.95;2.63;;;22.10;54.10;;;20.35;66.40;95959.09;4951945;28;20039;-67
2022/08/13 07:25:14;;;;;;;3.88;2.30;;;22.40;53.80;;;20.53;66.38;95960.63;4935441;28;20032;-67
2022/08/13 07:27:41;;;;;;;3.80;1.88;;;22.70;52.70;;;20.70;63.60;95956.75;4937504;28;20502;-67
2022/08/13 07:30:08;;;;;;;3.65;1.70;;;22.90;50.10;;;20.90;62.01;95958.78;4955503;28;20508;-67
2022/08/13 07:32:37;;;;;;;2.45;1.60;;;23.20;48.10;;;21.11;59.87;95962.38;4920396;29;20035;-67
2022/08/13 07:35:04;;;;;;;2.55;1.50;;;23.50;47.50;;;21.30;60.00;95960.94;4936068;29;20069;-66
2022/08/13 07:37:30;;;;;;;3.08;1.25;;;23.70;46.70;;;21.51;59.66;95969.84;4950927;28;20082;-67
2022/08/13 07:39:56;;;;;;;2.60;1.58;;;24.00;47.30;;;21.73;59.73;95958.97;4935919;29;20028;-67
2022/08/13 07:42:21;;;;;;;2.00;1.58;;;24.20;46.80;;;21.94;59.02;95959.81;4935772;28;20143;-67
2022/08/13 07:44:52;;;;;;;2.55;1.40;;;24.30;45.80;;;22.17;57.95;95961.22;4919454;29;20124;-66
2022/08/13 07:47:19;;;;;;;4.20;1.50;;;24.70;45.60;;;22.36;57.58;95948.13;4958548;28;20094;-67
2022/08/13 07:49:45;;;;;;;4.45;1.55;;;24.70;45.30;;;22.51;57.71;95957.00;4916286;29;20574;-67
2022/08/13 07:52:13;;;;;;;3.35;2.00;;;24.90;45.30;;;22.68;57.23;95958.63;4935627;29;20126;-67
2022/08/13 07:54:40;;;;;;;3.13;1.35;;;25.10;46.00;;;22.86;57.10;95955.44;4920187;29;20051;-67
2022/08/13 07:57:05;;;;;;;5.22;1.85;;;25.30;44.80;;;23.02;55.72;95957.00;4935090;28;20037;-67
2022/08/13 07:59:31;;;;;;;4.75;1.70;;;25.50;43.60;;;23.20;55.54;95964.47;4949320;28;20035;-67
2022/08/13 08:01:57;;;;;;;4.38;1.80;;;25.70;43.80;;;23.41;54.70;95961.75;4919638;28;20086;-66
2022/08/13 08:04:24;;;;;;;4.00;1.90;;;26.00;42.30;;;23.61;53.31;95958.22;4935191;29;20046;-67
2022/08/13 08:06:50;;;;;;;2.42;1.33;;;26.20;42.00;;;23.80;53.53;95953.84;4935421;29;20090;-67
2022/08/13 08:09:21;;;;;;;3.72;1.70;;;26.50;41.60;;;24.00;50.67;95959.09;4934764;28;20031;-67
2022/08/13 08:14:31;;;;;;;2.65;1.40;;;26.80;40.50;;;24.36;52.97;95966.97;4945703;28;19960;-67
2022/08/13 08:17:01;;;;;;;2.33;1.33;;;27.10;41.20;;;24.56;51.29;95950.69;4932038;28;20503;-67
2022/08/13 08:19:27;;;;;;;2.53;1.50;;;27.30;40.80;;;24.77;51.59;95955.91;4915102;28;20039;-67
2022/08/13 08:21:56;;;;;;;2.60;1.50;;;27.70;40.30;;;25.00;51.64;95960.56;4946402;28;20385;-71
2022/08/13 08:24:22;;;;;;;2.50;1.60;;;28.00;40.10;;;25.24;50.57;95960.59;4964040;28;20043;-71
2022/08/13 08:26:48;;;;;;;3.80;1.70;;;28.20;38.30;;;25.43;49.41;95955.28;4914385;28;20059;-70
2022/08/13 08:29:14;;;;;;;2.08;1.48;;;28.50;37.70;;;25.64;48.90;95954.75;4931130;28;20031;-71
2022/08/13 08:31:40;;;;;;;1.85;1.30;;;28.70;37.90;;;25.86;48.57;95956.16;4916569;29;20090;-67
2022/08/13 08:34:07;;;;;;;6.60;1.30;;;28.90;37.70;;;26.05;48.26;95948.88;4945707;28;20446;-71
2022/08/13 08:36:37;;;;;;;2.47;1.40;;;29.20;36.40;;;26.28;46.05;95947.22;4932117;28;20035;-68
2022/08/13 08:44:34;;;;;;;2.63;1.25;;;29.80;35.50;;;26.86;45.43;95947.66;4964936;28;20069;-68
2022/08/13 08:47:00;;;;;;;2.45;1.40;;;30.10;34.60;;;27.06;45.45;95951.91;4948668;28;20027;-69
2022/08/13 08:49:26;;;;;;;3.65;1.33;;;30.40;34.70;;;27.25;45.63;95951.84;4946191;28;20078;-68
2022/08/13 08:51:53;;;;;;;1.83;1.30;;;30.50;35.40;;;27.49;44.44;95953.56;4945551;28;20024;-69
2022/08/13 08:54:20;;;;;;;4.25;1.20;;;30.70;33.80;;;27.69;43.79;95953.19;4944140;28;20183;-67
2022/08/13 08:56:46;;;;;;;1.83;1.10;;;31.00;32.80;;;27.89;42.50;95950.06;4950225;28;20032;-66
2022/08/13 08:59:13;;;;;;;2.42;1.30;;;31.20;32.90;;;28.12;41.84;95944.72;4960678;28;20028;-67
2022/08/13 09:01:44;;;;;;;1.67;1.10;;;31.50;31.10;;;28.29;40.76;95944.88;4918633;28;20035;-67
2022/08/13 09:04:10;;;;;;;1.70;1.08;;;31.60;30.80;;;28.51;40.61;95941.41;4946343;28;20032;-67
2022/08/13 09:06:36;;;;;;;3.60;1.35;;;31.90;31.30;;;28.68;40.67;95947.75;4948030;28;20404;-68
2022/08/13 09:09:03;;;;;;;5.45;1.83;;;32.00;31.80;;;28.81;39.80;95948.00;4948958;28;20035;-67
2022/08/13 09:11:34;;;;;;;4.43;1.33;;;32.00;30.70;;;28.91;39.89;95934.22;4948548;28;20045;-67
2022/08/13 09:14:05;;;;;;;3.80;1.50;;;32.10;30.90;;;29.11;38.60;95936.41;4940682;28;20039;-68
2022/08/13 09:16:32;;;;;;;3.03;1.55;;;32.50;30.80;;;29.32;39.75;95941.28;4941242;28;20609;-67
2022/08/13 09:18:58;;;;;;;1.58;1.10;;;32.70;30.70;;;29.49;39.17;95927.84;4927024;28;20530;-66
2022/08/13 09:21:25;;;;;;;2.10;1.30;;;32.80;29.70;;;29.58;38.55;95925.97;4963030;28;20039;-67
2022/08/13 09:23:52;;;;;;;4.65;1.45;;;33.00;29.80;;;29.80;37.92;95935.91;4949655;28;20051;-67
2022/08/13 09:26:19;;;;;;;2.00;1.52;;;33.20;29.80;;;29.93;37.92;95931.47;4962952;28;20039;-66
2022/08/13 09:28:45;;;;;;;2.58;1.40;;;33.30;29.20;;;30.06;37.82;95930.56;4931796;28;20060;-66
2022/08/13 09:31:11;;;;;;;3.08;1.02;;;33.50;29.90;;;30.32;37.53;95923.22;4947986;28;20027;-67
2022/08/13 09:33:38;;;;;;;3.13;1.60;;;33.90;29.10;;;30.58;37.25;95925.16;4947518;28;20134;-67
2022/08/13 09:36:09;;;;;;;2.38;1.25;;;34.10;29.10;;;30.82;36.01;95930.91;4964269;28;20561;-67
2022/08/13 09:38:36;;;;;;;1.88;1.20;;;34.40;28.10;;;31.03;36.44;95918.22;4946820;28;20050;-67
2022/08/13 09:41:27;;;;;;;1.85;1.40;;;34.60;28.30;;;31.34;34.76;95925.34;4948442;28;20119;-67
2022/08/13 09:43:53;;;;;;;2.58;1.90;;;35.00;28.10;;;31.58;35.90;95922.81;4947585;28;20031;-67
2022/08/13 09:46:23;;;;;;;2.38;1.88;;;35.40;27.60;;;31.83;35.87;95925.75;4947414;28;20031;-66
2022/08/13 09:48:51;;;;;;;2.38;1.50;;;35.70;27.50;;;32.11;34.67;95921.41;4961703;28;20047;-64
2022/08/13 09:51:18;;;;;;;2.90;1.40;;;36.10;26.80;;;32.36;34.58;95921.56;4929119;28;20389;-66
2022/08/13 09:53:46;;;;;;;3.42;1.38;;;36.30;26.40;;;32.55;33.90;95911.00;4944968;28;20037;-66
2022/08/13 09:56:17;;;;;;;2.97;1.33;;;36.50;26.40;;;32.77;33.91;95918.00;4962695;28;20038;-66
2022/08/13 09:58:49;;;;;;;6.30;1.50;;;37.00;26.00;;;32.92;33.51;95913.88;4930919;29;20525;-66
2022/08/13 10:01:14;;;;;;;2.75;1.40;;;37.30;25.90;;;33.05;33.39;95913.59;4961190;28;20476;-66
2022/08/13 10:03:41;;;;;;;2.08;1.33;;;36.80;25.80;;;32.91;32.47;95915.03;4960992;28;20039;-65
2022/08/13 10:06:07;;;;;;;3.63;1.40;;;36.20;25.30;;;32.82;33.55;95915.13;4960487;28;20043;-66
2022/08/13 10:08:34;;;;;;;2.85;1.38;;;36.80;25.50;;;33.03;32.38;95917.75;4932650;28;20616;-65
2022/08/13 10:11:00;;;;;;;2.80;1.45;;;37.40;24.30;;;33.34;32.47;95907.19;4951257;28;20043;-66
2022/08/13 10:13:26;;;;;;;2.33;1.40;;;38.20;23.60;;;33.61;31.88;95915.81;4948131;28;20110;-68
2022/08/13 10:15:52;;;;;;;2.80;1.50;;;38.50;23.70;;;33.91;32.35;95919.91;4934508;29;20042;-68
2022/08/13 10:18:17;;;;;;;1.75;1.40;;;38.90;24.00;;;34.07;31.65;95915.34;4963840;28;20041;-69
2022/08/13 10:20:45;;;;;;;4.05;1.33;;;39.00;23.20;;;34.17;31.33;95907.81;4963683;28;20094;-69
2022/08/13 10:23:12;;;;;;;2.75;1.60;;;38.80;23.40;;;34.33;31.29;95906.75;4934454;28;20047;-66
2022/08/13 10:25:38;;;;;;;2.20;1.50;;;39.20;23.40;;;34.50;31.51;95902.97;4933592;28;20036;-67
2022/08/13 10:28:15;;;;;;;5.65;1.45;;;39.20;22.90;;;34.53;29.39;95899.53;4928707;28;20035;-65
2022/08/13 10:30:42;;;;;;;2.60;1.40;;;38.80;23.20;;;34.64;30.64;95908.06;4950738;28;20039;-65
2022/08/13 10:33:08;;;;;;;4.18;1.35;;;39.00;23.40;;;34.76;30.47;95898.97;4933726;28;20086;-65
2022/08/13 10:35:34;;;;;;;2.28;1.48;;;38.90;23.10;;;34.83;29.90;95899.16;4933910;28;20043;-65
2022/08/13 10:38:00;;;;;;;3.20;1.30;;;38.50;23.50;;;34.70;30.19;95896.50;4948853;28;20538;-66
2022/08/13 10:40:25;;;;;;;2.25;1.27;;;38.40;23.80;;;34.80;30.15;95902.59;4962755;28;20411;-63
2022/08/13 10:42:52;;;;;;;1.40;1.10;;;38.90;22.90;;;34.86;29.30;95904.78;4966207;28;20035;-63
2022/08/13 10:45:22;;;;;;;2.03;1.30;;;39.00;22.70;;;34.95;28.70;95902.69;4963948;28;20031;-66